sensor_id;sensor_type;location;lat;lon;timestamp;P1;durP1;ratioP1;P2;durP2;ratioP2
47433;SDS011;33184;48.774;8.918;2023-07-24T00:03:01;9.07;;;5.68;;
47433;SDS011;33184;48.774;8.918;2023-07-24T00:08:22;9.52;;;4.70;;
47433;SDS011;33184;48.774;8.918;2023-07-24T00:13:43;9.75;;;5.60;;
47433;SDS011;33184;48.774;8.918;2023-07-24T00:19:04;7.65;;;5.35;;
47433;SDS011;33184;48.774;8.918;2023-07-24T00:24:25;8.23;;;5.78;;
47433;SDS011;33184;48.774;8.918;2023-07-24T00:29:45;38.50;;;23.70;;
47433;SDS011;33184;48.774;8.918;2023-07-24T00:35:06;8.52;;;5.68;;
47433;SDS011;33184;48.774;8.918;2023-07-24T00:40:28;43.08;;;23.60;;
47433;SDS011;33184;48.774;8.918;2023-07-24T00:45:49;10.68;;;6.28;;
47433;SDS011;33184;48.774;8.918;2023-07-24T00:51:09;11.40;;;5.90;;
47433;SDS011;33184;48.774;8.918;2023-07-24T00:56:31;8.82;;;5.03;;
47433;SDS011;33184;48.774;8.918;2023-07-24T01:01:52;12.75;;;5.80;;
47433;SDS011;33184;48.774;8.918;2023-07-24T01:07:12;10.23;;;5.60;;
47433;SDS011;33184;48.774;8.918;2023-07-24T01:18:17;8.95;;;5.25;;
47433;SDS011;33184;48.774;8.918;2023-07-24T01:23:49;9.48;;;4.95;;
47433;SDS011;33184;48.774;8.918;2023-07-24T01:29:19;7.45;;;5.85;;
47433;SDS011;33184;48.774;8.918;2023-07-24T01:34:40;8.57;;;6.00;;
47433;SDS011;33184;48.774;8.918;2023-07-24T01:40:02;8.30;;;5.65;;
47433;SDS011;33184;48.774;8.918;2023-07-24T01:45:23;6.28;;;4.65;;
47433;SDS011;33184;48.774;8.918;2023-07-24T01:50:44;7.78;;;5.95;;
47433;SDS011;33184;48.774;8.918;2023-07-24T01:56:04;10.43;;;6.25;;
47433;SDS011;33184;48.774;8.918;2023-07-24T02:01:25;8.07;;;5.90;;
47433;SDS011;33184;48.774;8.918;2023-07-24T02:06:46;10.15;;;5.95;;
47433;SDS011;33184;48.774;8.918;2023-07-24T02:12:06;11.05;;;5.90;;
47433;SDS011;33184;48.774;8.918;2023-07-24T02:17:27;7.90;;;5.22;;
47433;SDS011;33184;48.774;8.918;2023-07-24T02:22:49;10.07;;;6.10;;
47433;SDS011;33184;48.774;8.918;2023-07-24T02:28:10;14.18;;;6.07;;
47433;SDS011;33184;48.774;8.918;2023-07-24T02:33:30;12.07;;;6.43;;
47433;SDS011;33184;48.774;8.918;2023-07-24T02:38:51;9.60;;;6.03;;
47433;SDS011;33184;48.774;8.918;2023-07-24T02:44:11;9.68;;;5.60;;
47433;SDS011;33184;48.774;8.918;2023-07-24T02:49:32;11.60;;;6.70;;
47433;SDS011;33184;48.774;8.918;2023-07-24T02:54:53;10.07;;;4.88;;
47433;SDS011;33184;48.774;8.918;2023-07-24T03:00:14;7.65;;;5.28;;
47433;SDS011;33184;48.774;8.918;2023-07-24T03:05:35;8.00;;;5.88;;
47433;SDS011;33184;48.774;8.918;2023-07-24T03:10:55;8.32;;;5.53;;
47433;SDS011;33184;48.774;8.918;2023-07-24T03:16:16;8.65;;;5.80;;
47433;SDS011;33184;48.774;8.918;2023-07-24T03:21:41;7.45;;;5.20;;
47433;SDS011;33184;48.774;8.918;2023-07-24T03:27:01;6.82;;;5.55;;
47433;SDS011;33184;48.774;8.918;2023-07-24T03:32:22;8.45;;;6.43;;
47433;SDS011;33184;48.774;8.918;2023-07-24T03:37:43;8.00;;;5.47;;
47433;SDS011;33184;48.774;8.918;2023-07-24T03:43:03;8.23;;;6.50;;
47433;SDS011;33184;48.774;8.918;2023-07-24T03:48:24;10.07;;;5.78;;
47433;SDS011;33184;48.774;8.918;2023-07-24T03:53:44;8.82;;;5.75;;
47433;SDS011;33184;48.774;8.918;2023-07-24T03:59:05;9.93;;;5.85;;
47433;SDS011;33184;48.774;8.918;2023-07-24T04:04:26;8.02;;;5.65;;
47433;SDS011;33184;48.774;8.918;2023-07-24T04:09:47;8.18;;;5.55;;
47433;SDS011;33184;48.774;8.918;2023-07-24T04:15:07;7.47;;;5.53;;
47433;SDS011;33184;48.774;8.918;2023-07-24T04:20:28;7.65;;;6.18;;
47433;SDS011;33184;48.774;8.918;2023-07-24T04:25:49;12.88;;;5.95;;
47433;SDS011;33184;48.774;8.918;2023-07-24T04:31:10;9.43;;;5.82;;
47433;SDS011;33184;48.774;8.918;2023-07-24T04:36:30;9.68;;;5.82;;
47433;SDS011;33184;48.774;8.918;2023-07-24T04:41:51;10.23;;;6.03;;
47433;SDS011;33184;48.774;8.918;2023-07-24T04:47:12;8.90;;;5.25;;
47433;SDS011;33184;48.774;8.918;2023-07-24T04:52:32;12.73;;;6.38;;
47433;SDS011;33184;48.774;8.918;2023-07-24T04:57:53;10.88;;;6.45;;
47433;SDS011;33184;48.774;8.918;2023-07-24T05:03:13;10.55;;;6.57;;
47433;SDS011;33184;48.774;8.918;2023-07-24T05:08:36;11.13;;;6.88;;
47433;SDS011;33184;48.774;8.918;2023-07-24T05:13:57;10.77;;;7.13;;
47433;SDS011;33184;48.774;8.918;2023-07-24T05:19:17;12.02;;;7.22;;
47433;SDS011;33184;48.774;8.918;2023-07-24T05:24:38;12.35;;;6.85;;
47433;SDS011;33184;48.774;8.918;2023-07-24T05:29:58;12.82;;;6.68;;
47433;SDS011;33184;48.774;8.918;2023-07-24T05:35:19;15.52;;;7.25;;
47433;SDS011;33184;48.774;8.918;2023-07-24T05:40:40;9.07;;;5.90;;
47433;SDS011;33184;48.774;8.918;2023-07-24T05:46:01;14.65;;;6.38;;
47433;SDS011;33184;48.774;8.918;2023-07-24T05:51:21;14.15;;;6.18;;
47433;SDS011;33184;48.774;8.918;2023-07-24T05:56:42;15.18;;;8.30;;
47433;SDS011;33184;48.774;8.918;2023-07-24T06:02:02;16.38;;;6.28;;
47433;SDS011;33184;48.774;8.918;2023-07-24T06:07:23;14.00;;;7.25;;
47433;SDS011;33184;48.774;8.918;2023-07-24T06:12:43;15.48;;;6.38;;
47433;SDS011;33184;48.774;8.918;2023-07-24T06:18:04;10.95;;;6.35;;
47433;SDS011;33184;48.774;8.918;2023-07-24T06:23:24;9.95;;;6.63;;
47433;SDS011;33184;48.774;8.918;2023-07-24T06:28:45;12.57;;;6.10;;
47433;SDS011;33184;48.774;8.918;2023-07-24T06:34:06;14.27;;;7.13;;
47433;SDS011;33184;48.774;8.918;2023-07-24T06:39:26;10.85;;;5.93;;
47433;SDS011;33184;48.774;8.918;2023-07-24T06:44:48;9.75;;;6.13;;
47433;SDS011;33184;48.774;8.918;2023-07-24T06:50:09;13.75;;;7.03;;
47433;SDS011;33184;48.774;8.918;2023-07-24T06:55:29;13.18;;;7.72;;
47433;SDS011;33184;48.774;8.918;2023-07-24T07:00:50;11.05;;;6.10;;
47433;SDS011;33184;48.774;8.918;2023-07-24T07:06:10;12.45;;;6.57;;
47433;SDS011;33184;48.774;8.918;2023-07-24T07:11:32;12.68;;;6.35;;
47433;SDS011;33184;48.774;8.918;2023-07-24T07:16:52;12.57;;;6.90;;
47433;SDS011;33184;48.774;8.918;2023-07-24T07:22:13;10.73;;;6.13;;
47433;SDS011;33184;48.774;8.918;2023-07-24T07:27:33;9.52;;;6.63;;
47433;SDS011;33184;48.774;8.918;2023-07-24T07:32:54;14.23;;;7.00;;
47433;SDS011;33184;48.774;8.918;2023-07-24T07:38:15;13.00;;;6.72;;
47433;SDS011;33184;48.774;8.918;2023-07-24T07:43:35;13.52;;;6.68;;
47433;SDS011;33184;48.774;8.918;2023-07-24T07:48:57;10.63;;;6.20;;
47433;SDS011;33184;48.774;8.918;2023-07-24T07:54:18;13.07;;;6.82;;
47433;SDS011;33184;48.774;8.918;2023-07-24T07:59:38;10.05;;;5.70;;
47433;SDS011;33184;48.774;8.918;2023-07-24T08:04:59;13.02;;;6.55;;
47433;SDS011;33184;48.774;8.918;2023-07-24T08:10:20;12.90;;;6.18;;
47433;SDS011;33184;48.774;8.918;2023-07-24T08:15:41;12.05;;;6.55;;
47433;SDS011;33184;48.774;8.918;2023-07-24T08:21:01;9.57;;;5.45;;
47433;SDS011;33184;48.774;8.918;2023-07-24T08:26:22;12.25;;;5.47;;
47433;SDS011;33184;48.774;8.918;2023-07-24T08:31:44;8.65;;;4.90;;
47433;SDS011;33184;48.774;8.918;2023-07-24T08:37:05;9.60;;;5.90;;
47433;SDS011;33184;48.774;8.918;2023-07-24T08:42:25;9.10;;;5.90;;
47433;SDS011;33184;48.774;8.918;2023-07-24T08:47:48;11.70;;;6.32;;
47433;SDS011;33184;48.774;8.918;2023-07-24T08:53:10;8.85;;;6.40;;
47433;SDS011;33184;48.774;8.918;2023-07-24T08:58:30;9.57;;;6.43;;
47433;SDS011;33184;48.774;8.918;2023-07-24T09:03:51;14.15;;;6.22;;
47433;SDS011;33184;48.774;8.918;2023-07-24T09:09:12;8.57;;;6.05;;
47433;SDS011;33184;48.774;8.918;2023-07-24T09:14:34;9.50;;;5.63;;
47433;SDS011;33184;48.774;8.918;2023-07-24T09:19:55;8.95;;;4.32;;
47433;SDS011;33184;48.774;8.918;2023-07-24T09:25:17;5.63;;;4.47;;
47433;SDS011;33184;48.774;8.918;2023-07-24T09:30:38;6.35;;;4.32;;
47433;SDS011;33184;48.774;8.918;2023-07-24T09:36:00;5.65;;;4.43;;
47433;SDS011;33184;48.774;8.918;2023-07-24T09:41:27;6.57;;;4.65;;
47433;SDS011;33184;48.774;8.918;2023-07-24T09:46:48;6.63;;;4.68;;
47433;SDS011;33184;48.774;8.918;2023-07-24T09:52:09;6.53;;;4.50;;
47433;SDS011;33184;48.774;8.918;2023-07-24T09:57:31;6.13;;;4.47;;
47433;SDS011;33184;48.774;8.918;2023-07-24T10:02:52;7.82;;;3.67;;
47433;SDS011;33184;48.774;8.918;2023-07-24T10:08:14;7.00;;;4.35;;
47433;SDS011;33184;48.774;8.918;2023-07-24T10:13:36;6.00;;;4.43;;
47433;SDS011;33184;48.774;8.918;2023-07-24T10:18:57;8.57;;;5.85;;
47433;SDS011;33184;48.774;8.918;2023-07-24T10:24:18;5.95;;;4.15;;
47433;SDS011;33184;48.774;8.918;2023-07-24T10:29:43;6.78;;;4.78;;
47433;SDS011;33184;48.774;8.918;2023-07-24T10:35:07;11.65;;;6.15;;
47433;SDS011;33184;48.774;8.918;2023-07-24T10:40:29;18.50;;;6.15;;
47433;SDS011;33184;48.774;8.918;2023-07-24T10:45:51;6.57;;;4.63;;
47433;SDS011;33184;48.774;8.918;2023-07-24T10:51:13;9.93;;;5.03;;
47433;SDS011;33184;48.774;8.918;2023-07-24T10:56:36;7.82;;;4.80;;
47433;SDS011;33184;48.774;8.918;2023-07-24T11:01:56;9.80;;;5.95;;
47433;SDS011;33184;48.774;8.918;2023-07-24T11:07:17;10.63;;;5.75;;
47433;SDS011;33184;48.774;8.918;2023-07-24T11:12:38;10.82;;;5.03;;
47433;SDS011;33184;48.774;8.918;2023-07-24T11:17:59;9.10;;;5.03;;
47433;SDS011;33184;48.774;8.918;2023-07-24T11:23:19;8.02;;;4.85;;
47433;SDS011;33184;48.774;8.918;2023-07-24T11:28:40;8.50;;;5.03;;
47433;SDS011;33184;48.774;8.918;2023-07-24T11:34:01;6.97;;;4.85;;
47433;SDS011;33184;48.774;8.918;2023-07-24T11:39:23;9.55;;;5.88;;
47433;SDS011;33184;48.774;8.918;2023-07-24T11:44:44;6.38;;;4.68;;
47433;SDS011;33184;48.774;8.918;2023-07-24T11:50:04;8.70;;;4.13;;
47433;SDS011;33184;48.774;8.918;2023-07-24T11:55:32;7.70;;;4.85;;
47433;SDS011;33184;48.774;8.918;2023-07-24T12:00:52;7.07;;;4.35;;
47433;SDS011;33184;48.774;8.918;2023-07-24T12:06:14;7.35;;;4.03;;
47433;SDS011;33184;48.774;8.918;2023-07-24T12:11:42;6.20;;;3.58;;
47433;SDS011;33184;48.774;8.918;2023-07-24T12:17:04;6.93;;;4.13;;
47433;SDS011;33184;48.774;8.918;2023-07-24T12:22:30;6.82;;;4.13;;
47433;SDS011;33184;48.774;8.918;2023-07-24T12:27:50;4.97;;;3.30;;
47433;SDS011;33184;48.774;8.918;2023-07-24T12:33:11;5.57;;;3.83;;
47433;SDS011;33184;48.774;8.918;2023-07-24T12:38:31;5.13;;;3.92;;
47433;SDS011;33184;48.774;8.918;2023-07-24T12:43:52;7.53;;;2.80;;
47433;SDS011;33184;48.774;8.918;2023-07-24T12:49:13;7.80;;;3.63;;
47433;SDS011;33184;48.774;8.918;2023-07-24T12:54:34;4.53;;;3.00;;
47433;SDS011;33184;48.774;8.918;2023-07-24T12:59:55;6.50;;;3.63;;
47433;SDS011;33184;48.774;8.918;2023-07-24T13:05:15;4.60;;;3.22;;
47433;SDS011;33184;48.774;8.918;2023-07-24T13:10:36;6.30;;;3.53;;
47433;SDS011;33184;48.774;8.918;2023-07-24T13:15:56;5.25;;;3.58;;
47433;SDS011;33184;48.774;8.918;2023-07-24T13:21:17;4.80;;;3.17;;
47433;SDS011;33184;48.774;8.918;2023-07-24T13:26:37;5.60;;;3.90;;
47433;SDS011;33184;48.774;8.918;2023-07-24T13:31:58;3.50;;;2.70;;
47433;SDS011;33184;48.774;8.918;2023-07-24T13:37:19;4.53;;;2.90;;
47433;SDS011;33184;48.774;8.918;2023-07-24T13:42:39;4.70;;;2.78;;
47433;SDS011;33184;48.774;8.918;2023-07-24T13:48:00;4.15;;;3.05;;
47433;SDS011;33184;48.774;8.918;2023-07-24T13:53:22;4.55;;;3.25;;
47433;SDS011;33184;48.774;8.918;2023-07-24T13:58:43;5.13;;;3.30;;
47433;SDS011;33184;48.774;8.918;2023-07-24T14:04:03;3.15;;;2.20;;
47433;SDS011;33184;48.774;8.918;2023-07-24T14:09:24;3.30;;;2.58;;
47433;SDS011;33184;48.774;8.918;2023-07-24T14:14:44;3.83;;;3.17;;
47433;SDS011;33184;48.774;8.918;2023-07-24T14:20:05;3.63;;;2.42;;
47433;SDS011;33184;48.774;8.918;2023-07-24T14:25:26;3.58;;;2.50;;
47433;SDS011;33184;48.774;8.918;2023-07-24T14:30:47;4.63;;;2.47;;
47433;SDS011;33184;48.774;8.918;2023-07-24T14:36:07;4.25;;;2.13;;
47433;SDS011;33184;48.774;8.918;2023-07-24T14:41:28;3.58;;;2.35;;
47433;SDS011;33184;48.774;8.918;2023-07-24T14:46:48;3.22;;;2.25;;
47433;SDS011;33184;48.774;8.918;2023-07-24T14:52:09;3.25;;;2.15;;
47433;SDS011;33184;48.774;8.918;2023-07-24T14:57:29;2.97;;;2.08;;
47433;SDS011;33184;48.774;8.918;2023-07-24T15:02:50;3.10;;;2.13;;
47433;SDS011;33184;48.774;8.918;2023-07-24T15:08:10;2.50;;;2.20;;
47433;SDS011;33184;48.774;8.918;2023-07-24T15:13:31;3.20;;;2.25;;
47433;SDS011;33184;48.774;8.918;2023-07-24T15:18:52;2.42;;;1.60;;
47433;SDS011;33184;48.774;8.918;2023-07-24T15:24:12;2.97;;;2.08;;
47433;SDS011;33184;48.774;8.918;2023-07-24T15:29:33;2.92;;;2.22;;
47433;SDS011;33184;48.774;8.918;2023-07-24T15:34:57;2.97;;;1.80;;
47433;SDS011;33184;48.774;8.918;2023-07-24T15:40:18;2.17;;;1.63;;
47433;SDS011;33184;48.774;8.918;2023-07-24T15:45:38;3.28;;;2.03;;
47433;SDS011;33184;48.774;8.918;2023-07-24T15:50:59;4.13;;;2.28;;
47433;SDS011;33184;48.774;8.918;2023-07-24T15:56:20;3.08;;;2.00;;
47433;SDS011;33184;48.774;8.918;2023-07-24T16:01:41;3.33;;;2.17;;
47433;SDS011;33184;48.774;8.918;2023-07-24T16:07:01;2.47;;;1.85;;
47433;SDS011;33184;48.774;8.918;2023-07-24T16:12:22;3.28;;;2.38;;
47433;SDS011;33184;48.774;8.918;2023-07-24T16:17:42;2.40;;;2.10;;
47433;SDS011;33184;48.774;8.918;2023-07-24T16:23:03;3.80;;;2.03;;
47433;SDS011;33184;48.774;8.918;2023-07-24T16:28:24;2.65;;;1.40;;
47433;SDS011;33184;48.774;8.918;2023-07-24T16:33:44;5.95;;;1.90;;
47433;SDS011;33184;48.774;8.918;2023-07-24T16:39:05;3.70;;;1.65;;
47433;SDS011;33184;48.774;8.918;2023-07-24T16:44:26;8.70;;;3.10;;
47433;SDS011;33184;48.774;8.918;2023-07-24T16:49:47;6.20;;;2.42;;
47433;SDS011;33184;48.774;8.918;2023-07-24T16:55:08;6.72;;;2.15;;
47433;SDS011;33184;48.774;8.918;2023-07-24T17:00:28;3.55;;;2.22;;
47433;SDS011;33184;48.774;8.918;2023-07-24T17:05:49;2.08;;;1.20;;
47433;SDS011;33184;48.774;8.918;2023-07-24T17:11:09;1.67;;;0.90;;
47433;SDS011;33184;48.774;8.918;2023-07-24T17:16:30;1.30;;;0.90;;
47433;SDS011;33184;48.774;8.918;2023-07-24T17:21:51;1.98;;;1.30;;
47433;SDS011;33184;48.774;8.918;2023-07-24T17:27:12;1.40;;;0.90;;
47433;SDS011;33184;48.774;8.918;2023-07-24T17:32:32;1.40;;;0.80;;
47433;SDS011;33184;48.774;8.918;2023-07-24T17:37:53;0.80;;;0.70;;
47433;SDS011;33184;48.774;8.918;2023-07-24T17:43:13;1.67;;;0.90;;
47433;SDS011;33184;48.774;8.918;2023-07-24T17:48:34;0.88;;;0.70;;
47433;SDS011;33184;48.774;8.918;2023-07-24T17:53:57;1.67;;;0.90;;
47433;SDS011;33184;48.774;8.918;2023-07-24T17:59:18;1.73;;;0.85;;
47433;SDS011;33184;48.774;8.918;2023-07-24T18:04:39;2.28;;;0.80;;
47433;SDS011;33184;48.774;8.918;2023-07-24T18:09:59;0.98;;;0.70;;
47433;SDS011;33184;48.774;8.918;2023-07-24T18:15:20;2.85;;;1.08;;
47433;SDS011;33184;48.774;8.918;2023-07-24T18:20:41;2.10;;;0.93;;
47433;SDS011;33184;48.774;8.918;2023-07-24T18:26:01;0.90;;;0.73;;
47433;SDS011;33184;48.774;8.918;2023-07-24T18:31:22;1.48;;;0.95;;
47433;SDS011;33184;48.774;8.918;2023-07-24T18:36:42;1.00;;;0.75;;
47433;SDS011;33184;48.774;8.918;2023-07-24T18:42:03;2.72;;;1.20;;
47433;SDS011;33184;48.774;8.918;2023-07-24T18:47:24;5.70;;;1.83;;
47433;SDS011;33184;48.774;8.918;2023-07-24T18:52:44;2.88;;;0.98;;
47433;SDS011;33184;48.774;8.918;2023-07-24T18:58:05;0.93;;;0.65;;
47433;SDS011;33184;48.774;8.918;2023-07-24T19:03:25;2.30;;;0.70;;
47433;SDS011;33184;48.774;8.918;2023-07-24T19:08:46;1.17;;;0.70;;
47433;SDS011;33184;48.774;8.918;2023-07-24T19:14:09;1.73;;;0.90;;
47433;SDS011;33184;48.774;8.918;2023-07-24T19:19:29;0.90;;;0.68;;
47433;SDS011;33184;48.774;8.918;2023-07-24T19:24:50;1.15;;;0.63;;
47433;SDS011;33184;48.774;8.918;2023-07-24T19:30:11;1.98;;;0.90;;
47433;SDS011;33184;48.774;8.918;2023-07-24T19:35:32;0.73;;;0.70;;
47433;SDS011;33184;48.774;8.918;2023-07-24T19:40:59;1.00;;;0.60;;
47433;SDS011;33184;48.774;8.918;2023-07-24T19:46:20;0.98;;;0.77;;
47433;SDS011;33184;48.774;8.918;2023-07-24T19:51:42;4.32;;;0.73;;
47433;SDS011;33184;48.774;8.918;2023-07-24T19:57:03;2.03;;;0.80;;
47433;SDS011;33184;48.774;8.918;2023-07-24T20:02:24;0.70;;;0.70;;
47433;SDS011;33184;48.774;8.918;2023-07-24T20:07:44;2.10;;;0.70;;
47433;SDS011;33184;48.774;8.918;2023-07-24T20:13:05;1.17;;;0.88;;
47433;SDS011;33184;48.774;8.918;2023-07-24T20:18:26;1.63;;;0.70;;
47433;SDS011;33184;48.774;8.918;2023-07-24T20:23:47;0.77;;;0.70;;
47433;SDS011;33184;48.774;8.918;2023-07-24T20:29:08;1.27;;;1.00;;
47433;SDS011;33184;48.774;8.918;2023-07-24T20:34:28;1.00;;;0.65;;
47433;SDS011;33184;48.774;8.918;2023-07-24T20:39:49;1.10;;;0.70;;
47433;SDS011;33184;48.774;8.918;2023-07-24T20:45:09;2.53;;;0.93;;
47433;SDS011;33184;48.774;8.918;2023-07-24T20:50:34;1.63;;;0.90;;
47433;SDS011;33184;48.774;8.918;2023-07-24T20:55:55;1.80;;;0.80;;
47433;SDS011;33184;48.774;8.918;2023-07-24T21:01:16;1.30;;;0.73;;
47433;SDS011;33184;48.774;8.918;2023-07-24T21:06:37;3.63;;;0.80;;
47433;SDS011;33184;48.774;8.918;2023-07-24T21:11:57;1.80;;;0.60;;
47433;SDS011;33184;48.774;8.918;2023-07-24T21:17:18;2.88;;;0.80;;
47433;SDS011;33184;48.774;8.918;2023-07-24T21:22:39;1.90;;;0.70;;
47433;SDS011;33184;48.774;8.918;2023-07-24T21:27:59;5.05;;;1.00;;
47433;SDS011;33184;48.774;8.918;2023-07-24T21:33:20;1.58;;;0.82;;
47433;SDS011;33184;48.774;8.918;2023-07-24T21:38:40;2.58;;;1.25;;
47433;SDS011;33184;48.774;8.918;2023-07-24T21:44:01;5.63;;;1.45;;
47433;SDS011;33184;48.774;8.918;2023-07-24T21:49:22;3.38;;;0.80;;
47433;SDS011;33184;48.774;8.918;2023-07-24T21:54:42;2.63;;;0.98;;
47433;SDS011;33184;48.774;8.918;2023-07-24T22:00:04;4.07;;;1.00;;
47433;SDS011;33184;48.774;8.918;2023-07-24T22:05:32;6.50;;;1.02;;
47433;SDS011;33184;48.774;8.918;2023-07-24T22:10:53;2.33;;;0.90;;
47433;SDS011;33184;48.774;8.918;2023-07-24T22:16:13;5.38;;;1.80;;
47433;SDS011;33184;48.774;8.918;2023-07-24T22:21:34;4.13;;;1.00;;
47433;SDS011;33184;48.774;8.918;2023-07-24T22:26:56;4.38;;;1.73;;
47433;SDS011;33184;48.774;8.918;2023-07-24T22:32:16;1.88;;;1.00;;
47433;SDS011;33184;48.774;8.918;2023-07-24T22:37:37;2.45;;;1.00;;
47433;SDS011;33184;48.774;8.918;2023-07-24T22:42:57;1.10;;;0.93;;
47433;SDS011;33184;48.774;8.918;2023-07-24T22:48:18;1.73;;;1.00;;
47433;SDS011;33184;48.774;8.918;2023-07-24T22:53:39;3.40;;;1.20;;
47433;SDS011;33184;48.774;8.918;2023-07-24T23:04:23;1.30;;;1.10;;
47433;SDS011;33184;48.774;8.918;2023-07-24T23:09:44;1.83;;;1.10;;
47433;SDS011;33184;48.774;8.918;2023-07-24T23:15:05;2.75;;;1.45;;
47433;SDS011;33184;48.774;8.918;2023-07-24T23:20:26;2.42;;;1.33;;
47433;SDS011;33184;48.774;8.918;2023-07-24T23:25:46;2.22;;;1.20;;
47433;SDS011;33184;48.774;8.918;2023-07-24T23:31:07;2.63;;;1.23;;
47433;SDS011;33184;48.774;8.918;2023-07-24T23:36:28;2.47;;;1.02;;
47433;SDS011;33184;48.774;8.918;2023-07-24T23:41:50;2.08;;;1.27;;
47433;SDS011;33184;48.774;8.918;2023-07-24T23:47:12;2.22;;;1.27;;
47433;SDS011;33184;48.774;8.918;2023-07-24T23:52:32;4.90;;;1.95;;
47433;SDS011;33184;48.774;8.918;2023-07-24T23:57:53;2.75;;;1.30;;
